Aberdeen, SD

8:33 AM CDT on April 19, 2015 (GMT -0500)
Gwinner-melroe | | Change Station
CLOSE
Current Station
Airport
Location: Gwinner,
Elevation: 1266 ft
Nearby Weather Stations

Elev 1266 ft 46.22 °N, 97.64 °W | Updated 18 minutes ago

Overcast
Overcast
46 °F
Feels Like 39 °F
N
21
Wind Variable Wind from NW
Gusts 29 mph

Today
High -- | Low -- °F
--% Chance of Precip.
Yesterday
High -- | Low -- °F
Precip. -- in
6:41 AM 8:25 PM
New Moon, 1% visible
Pressure 29.77 in
Visibility -9999.0 miles
Clouds Mostly Cloudy 1200 ft
Mostly Cloudy 1700 ft
Overcast 2300 ft
Windchill 39 °F
Dew Point 46 °F
Humidity 100%
Rainfall 0.11 in
Snow Depth Not available.
UV 0 out of 12
Pollen 5.50 out of 12
Air Quality Not available.
Flu Activity Sporadic
METAR KGWR 191315Z AUTO 32018G25KT BKN012 BKN017 OVC023 08/08 A2977 RMK A01 P000

More Conditions Fewer Conditions

Pressure 29.77 in
Visibility -9999.0 miles
Clouds Mostly Cloudy 1200 ft
Mostly Cloudy 1700 ft
Overcast 2300 ft
Windchill 39 °F
Dew Point 46 °F
Humidity 100%
Rainfall 0.11 in
Snow Depth Not available.
UV 0 out of 12
Pollen 5.50 out of 12
Air Quality Not available.
Flu Activity Sporadic
METAR KGWR 191315Z AUTO 32018G25KT BKN012 BKN017 OVC023 08/08 A2977 RMK A01 P000

More Conditions Fewer Conditions

10-Day Weather Forecast

Almanac

Astronomy

Apr. 19, 2015 Rise Set
Actual Time
Civil Twilight
Nautical Twilight
Astronomical Twilight
Moon
Length of Visible Light
Length of Day
Tomorrow will be .
, % of the Moon is Illuminated

Today's Extremes

State Highs State Lows

Community

WunderPhotos

Upload Photos

1,814,795 photos uploaded!

WunderBlogs® & News

Nearby

Air Quality

  Air Quality AQ Index Pollutant
Not available.

Snow Depth

Station Depth Elevation

Earthquake Activity

City Distance Mag. Time & Date
Minimum magnitude displayed is 2.5.

Coastal Water Temperatures

Place Temperature

Stations

Nearby Weather Stations

Station Location Temp. Windchill Dew Point Humidity Wind Precip. Elev Updated Type